createdAt,value
2019-03-25T00:01:47.946Z,27.37
2019-03-25T00:04:20.542Z,27.93
2019-03-25T00:06:53.503Z,27.37
2019-03-25T00:09:26.104Z,28.27
2019-03-25T00:11:58.677Z,29.67
2019-03-25T00:14:31.260Z,29.47
2019-03-25T00:17:04.348Z,28.57
2019-03-25T00:19:37.956Z,30.83
2019-03-25T00:22:10.994Z,31.83
2019-03-25T00:24:43.650Z,30.97
2019-03-25T00:27:16.275Z,29.90
2019-03-25T00:29:48.871Z,29.87
2019-03-25T00:32:21.487Z,30.63
2019-03-25T00:34:54.186Z,30.17
2019-03-25T00:37:27.010Z,30.13
2019-03-25T00:39:59.603Z,31.60
2019-03-25T00:42:32.204Z,29.27
2019-03-25T00:45:04.907Z,30.27
2019-03-25T00:47:37.557Z,30.13
2019-03-25T00:50:10.393Z,31.53
2019-03-25T00:52:43.056Z,31.40
2019-03-25T00:55:15.709Z,31.53
2019-03-25T00:57:48.286Z,33.50
2019-03-25T01:00:21.589Z,33.20
2019-03-25T01:02:54.149Z,34.77
2019-03-25T01:05:26.871Z,33.83
2019-03-25T01:07:59.800Z,35.00
2019-03-25T01:10:33.278Z,36.23
2019-03-25T01:13:05.846Z,35.57
2019-03-25T01:15:38.447Z,35.07
2019-03-25T01:18:16.907Z,33.97
2019-03-25T01:20:45.391Z,34.30
2019-03-25T01:23:18.250Z,35.60
2019-03-25T01:25:50.846Z,34.60
2019-03-25T01:28:23.426Z,34.80
2019-03-25T01:30:56.002Z,33.53
2019-03-25T01:33:28.548Z,37.23
2019-03-25T01:36:01.227Z,33.77
2019-03-25T01:38:33.987Z,35.40
2019-03-25T01:41:06.595Z,37.00
2019-03-25T01:43:39.189Z,36.43
2019-03-25T01:46:11.756Z,35.10
2019-03-25T01:48:44.666Z,36.40
2019-03-25T01:51:18.348Z,36.07
2019-03-25T01:53:51.269Z,36.20
2019-03-25T01:56:24.165Z,35.00
2019-03-25T01:58:56.765Z,35.73
2019-03-25T02:01:29.344Z,35.47
2019-03-25T02:04:03.168Z,34.73
2019-03-25T02:06:35.776Z,35.60
2019-03-25T02:09:10.383Z,34.43
2019-03-25T02:11:42.995Z,34.30
2019-03-25T02:14:15.539Z,35.63
2019-03-25T02:16:48.415Z,36.40
2019-03-25T02:19:20.982Z,34.97
2019-03-25T02:21:53.556Z,36.50
2019-03-25T02:24:26.528Z,36.70
2019-03-25T02:26:59.147Z,36.13
2019-03-25T02:29:31.734Z,35.77
2019-03-25T02:32:04.366Z,35.70
2019-03-25T02:34:38.212Z,36.13
2019-03-25T02:37:10.794Z,35.03
2019-03-25T02:39:43.403Z,37.73
2019-03-25T02:42:16.047Z,34.83
2019-03-25T02:44:48.688Z,35.03
2019-03-25T02:47:21.689Z,34.50
2019-03-25T02:49:54.399Z,35.53
2019-03-25T02:52:26.982Z,34.23
2019-03-25T02:54:59.890Z,33.17
2019-03-25T02:57:32.970Z,33.90
2019-03-25T03:00:07.509Z,33.30
2019-03-25T03:02:40.198Z,33.47
2019-03-25T03:05:13.085Z,32.70
2019-03-25T03:07:45.713Z,32.63
2019-03-25T03:10:18.477Z,34.40
2019-03-25T03:12:51.156Z,31.17
2019-03-25T03:15:23.835Z,32.57
2019-03-25T03:17:56.471Z,30.43
2019-03-25T03:20:29.079Z,30.90
2019-03-25T03:23:01.693Z,30.80
2019-03-25T03:25:34.949Z,33.60
2019-03-25T03:28:07.841Z,34.10
2019-03-25T03:30:40.814Z,35.10
2019-03-25T03:33:13.761Z,31.93
2019-03-25T03:35:46.752Z,32.83
2019-03-25T03:38:19.624Z,30.40
2019-03-25T03:40:52.388Z,29.73
2019-03-25T03:43:24.965Z,27.93
2019-03-25T03:45:57.587Z,28.53
2019-03-25T03:48:30.315Z,28.23
2019-03-25T03:51:03.671Z,27.93
2019-03-25T03:53:36.605Z,28.40
2019-03-25T03:56:13.231Z,26.87
2019-03-25T03:58:46.148Z,27.33
2019-03-25T04:01:18.794Z,24.27
2019-03-25T04:03:51.366Z,24.17
2019-03-25T04:06:23.966Z,26.37
2019-03-25T04:08:56.516Z,25.30
2019-03-25T04:11:29.421Z,25.73
2019-03-25T04:14:02.377Z,25.93
2019-03-25T04:16:36.089Z,24.97
2019-03-25T04:19:12.797Z,23.77
2019-03-25T04:21:45.385Z,26.00
2019-03-25T04:24:18.933Z,25.10
2019-03-25T04:26:51.895Z,27.23
2019-03-25T04:29:24.521Z,25.30
2019-03-25T04:31:57.080Z,25.30
2019-03-25T04:34:29.665Z,24.23
2019-03-25T04:37:02.239Z,24.63
2019-03-25T04:39:37.901Z,22.93
2019-03-25T04:42:10.905Z,24.13
2019-03-25T04:44:43.567Z,22.17
2019-03-25T04:47:16.159Z,22.67
2019-03-25T04:49:50.997Z,22.30
2019-03-25T04:52:23.610Z,23.33
2019-03-25T04:54:56.241Z,22.83
2019-03-25T04:57:29.017Z,22.17
2019-03-25T05:00:01.637Z,22.17
2019-03-25T05:02:37.214Z,22.90
2019-03-25T05:05:10.802Z,20.97
2019-03-25T05:07:43.486Z,21.63
2019-03-25T05:10:16.670Z,21.87
2019-03-25T05:12:49.715Z,20.80
2019-03-25T05:15:22.347Z,20.53
2019-03-25T05:17:54.927Z,20.77
2019-03-25T05:20:28.653Z,19.50
2019-03-25T05:23:01.285Z,20.17
2019-03-25T05:25:33.840Z,18.97
2019-03-25T05:28:06.471Z,18.10
2019-03-25T05:30:39.075Z,15.50
2019-03-25T05:33:11.662Z,16.33
2019-03-25T05:35:46.754Z,14.33
2019-03-25T05:38:18.601Z,13.27
2019-03-25T05:40:51.220Z,12.17
2019-03-25T05:43:25.106Z,12.43
2019-03-25T05:45:57.673Z,11.13
2019-03-25T05:48:30.267Z,12.10
2019-03-25T05:51:02.887Z,11.37
2019-03-25T05:53:35.667Z,10.47
2019-03-25T05:56:08.252Z,11.87
2019-03-25T05:58:41.002Z,12.17
2019-03-25T06:01:13.787Z,10.67
2019-03-25T06:03:49.448Z,10.67
2019-03-25T06:06:23.401Z,11.27
2019-03-25T06:08:55.987Z,11.60
2019-03-25T06:11:28.567Z,10.83
2019-03-25T06:14:01.186Z,11.33
2019-03-25T06:16:33.792Z,11.30
2019-03-25T06:19:13.271Z,11.07
2019-03-25T06:21:45.940Z,10.50
2019-03-25T06:24:18.476Z,11.00
2019-03-25T06:26:51.396Z,10.10
2019-03-25T06:29:24.196Z,11.07
2019-03-25T06:31:56.785Z,9.53
2019-03-25T06:34:29.357Z,9.90
2019-03-25T06:37:01.966Z,11.27
2019-03-25T06:39:37.278Z,11.70
2019-03-25T06:42:12.294Z,12.10
2019-03-25T06:44:44.989Z,12.10
2019-03-25T06:47:17.662Z,10.60
2019-03-25T06:49:50.266Z,11.87
2019-03-25T06:52:22.849Z,12.33
2019-03-25T06:54:55.446Z,12.63
2019-03-25T06:57:28.055Z,12.17
2019-03-25T07:00:00.752Z,12.90
2019-03-25T07:02:33.646Z,12.47
2019-03-25T07:05:07.462Z,11.60
2019-03-25T07:07:41.121Z,11.87
2019-03-25T07:10:18.877Z,10.50
2019-03-25T07:12:52.661Z,10.23
2019-03-25T07:15:29.737Z,9.23
2019-03-25T07:18:02.371Z,8.83
2019-03-25T07:20:35.051Z,8.20
2019-03-25T07:23:07.653Z,8.83
2019-03-25T07:25:40.216Z,8.87
2019-03-25T07:28:12.815Z,8.90
2019-03-25T07:30:45.507Z,10.23
2019-03-25T07:33:19.132Z,7.10
2019-03-25T07:35:51.702Z,7.83
2019-03-25T07:38:24.300Z,7.33
2019-03-25T07:40:57.087Z,7.67
2019-03-25T07:43:29.782Z,7.17
2019-03-25T07:46:02.794Z,6.30
2019-03-25T07:48:36.546Z,5.83
2019-03-25T07:51:09.178Z,5.90
2019-03-25T07:53:41.795Z,5.33
2019-03-25T07:56:14.508Z,4.47
2019-03-25T07:58:47.281Z,4.87
2019-03-25T08:01:20.213Z,5.07
2019-03-25T08:03:52.917Z,7.67
2019-03-25T08:06:25.505Z,7.57
2019-03-25T08:09:03.604Z,7.07
2019-03-25T08:11:32.478Z,6.27
2019-03-25T08:14:05.275Z,7.07
2019-03-25T08:16:37.964Z,4.87
2019-03-25T08:19:10.646Z,4.73
2019-03-25T08:21:43.198Z,4.27
2019-03-25T08:24:15.841Z,5.97
2019-03-25T08:26:48.737Z,5.60
2019-03-25T08:29:21.525Z,4.77
2019-03-25T08:31:54.301Z,6.30
2019-03-25T08:34:26.938Z,8.83
2019-03-25T08:36:59.762Z,13.70
2019-03-25T08:39:32.325Z,11.07
2019-03-25T08:42:04.926Z,4.53
2019-03-25T08:44:37.539Z,5.50
2019-03-25T08:47:10.650Z,5.50
2019-03-25T08:49:43.265Z,4.77
2019-03-25T08:52:15.887Z,4.70
2019-03-25T08:54:48.575Z,4.70
2019-03-25T08:57:21.199Z,4.10
2019-03-25T08:59:53.837Z,4.60
2019-03-25T09:02:26.632Z,3.93
2019-03-25T09:04:59.278Z,3.80
2019-03-25T09:07:31.858Z,3.73
2019-03-25T09:10:04.793Z,3.20
2019-03-25T09:12:37.401Z,2.77
2019-03-25T09:15:11.332Z,3.17
2019-03-25T09:17:44.466Z,3.53
2019-03-25T09:20:18.728Z,3.10
2019-03-25T09:22:51.450Z,3.20
2019-03-25T09:25:24.546Z,2.63
2019-03-25T09:27:58.697Z,2.80
2019-03-25T09:31:20.103Z,4.87
2019-03-25T09:33:53.248Z,5.50
2019-03-25T09:36:25.860Z,21.73
2019-03-25T09:38:58.449Z,4.97
2019-03-25T09:41:31.012Z,4.87
2019-03-25T09:44:03.594Z,3.23
2019-03-25T09:46:36.196Z,3.10
2019-03-25T09:49:09.059Z,3.10
2019-03-25T09:51:41.703Z,3.30
2019-03-25T09:54:14.294Z,3.27
2019-03-25T09:56:46.904Z,6.53
2019-03-25T09:59:19.542Z,22.27
2019-03-25T10:01:52.277Z,15.00
2019-03-25T10:08:31.277Z,4.00
2019-03-25T10:11:03.855Z,4.63
2019-03-25T10:13:36.497Z,2.43
2019-03-25T10:16:09.077Z,2.70
2019-03-25T10:18:41.682Z,2.63
2019-03-25T10:21:14.250Z,3.10
2019-03-25T10:23:47.206Z,3.10
2019-03-25T10:26:19.807Z,3.70
2019-03-25T10:28:52.375Z,3.13
2019-03-25T10:31:24.975Z,2.60
2019-03-25T10:33:57.547Z,3.30
2019-03-25T10:36:31.692Z,3.57
2019-03-25T10:39:06.333Z,2.70
2019-03-25T10:41:38.987Z,3.47
2019-03-25T10:44:11.677Z,6.43
2019-03-25T10:46:44.378Z,3.83
2019-03-25T10:49:16.943Z,3.33
2019-03-25T10:51:49.782Z,3.30
2019-03-25T10:54:24.253Z,3.97
2019-03-25T10:56:56.950Z,3.67
2019-03-25T10:59:29.775Z,4.73
2019-03-25T11:02:02.424Z,4.53
2019-03-25T11:04:35.488Z,10.10
2019-03-25T11:07:08.173Z,4.20
2019-03-25T11:09:41.317Z,5.00
2019-03-25T11:12:13.945Z,4.47
2019-03-25T11:14:46.567Z,5.53
2019-03-25T11:17:19.137Z,3.37
2019-03-25T11:19:51.770Z,3.17
2019-03-25T11:22:24.346Z,3.43
2019-03-25T11:24:57.004Z,3.93
2019-03-25T11:27:29.628Z,3.87
2019-03-25T11:30:02.250Z,4.93
2019-03-25T11:32:34.890Z,3.63
2019-03-25T11:35:08.123Z,4.70
2019-03-25T11:37:40.693Z,4.50
2019-03-25T11:40:15.180Z,5.17
2019-03-25T11:42:47.783Z,4.33
2019-03-25T11:45:20.480Z,3.60
2019-03-25T11:47:53.129Z,5.10
2019-03-25T11:50:25.761Z,4.87
2019-03-25T11:52:59.593Z,4.03
2019-03-25T11:55:32.165Z,5.43
2019-03-25T11:58:04.720Z,4.00
2019-03-25T12:00:37.402Z,4.70
2019-03-25T12:03:10.106Z,4.87
2019-03-25T12:05:42.687Z,5.17
2019-03-25T12:08:15.405Z,5.53
2019-03-25T12:10:48.007Z,5.00
2019-03-25T12:13:20.639Z,4.80
2019-03-25T12:15:53.246Z,4.37
2019-03-25T12:18:25.819Z,4.77
2019-03-25T12:20:58.450Z,4.97
2019-03-25T12:23:31.044Z,4.93
2019-03-25T12:26:03.607Z,5.57
2019-03-25T12:28:36.251Z,4.73
2019-03-25T12:31:08.834Z,5.37
2019-03-25T12:33:41.443Z,5.83
2019-03-25T12:36:14.000Z,6.63
2019-03-25T12:38:46.549Z,5.60
2019-03-25T12:41:19.417Z,6.10
2019-03-25T12:43:52.026Z,6.00
2019-03-25T12:46:24.891Z,5.37
2019-03-25T12:48:57.517Z,4.57
2019-03-25T12:51:31.354Z,5.23
2019-03-25T12:54:03.978Z,5.20
2019-03-25T12:56:36.823Z,4.80
2019-03-25T12:59:09.415Z,4.10
2019-03-25T13:01:52.446Z,3.60
2019-03-25T13:04:16.846Z,4.40
2019-03-25T13:06:49.438Z,4.00
2019-03-25T13:09:21.997Z,4.10
2019-03-25T13:11:54.792Z,4.80
2019-03-25T13:14:27.384Z,6.20
2019-03-25T13:16:59.989Z,4.90
2019-03-25T13:19:32.559Z,7.70
2019-03-25T13:22:05.250Z,6.53
2019-03-25T13:24:37.955Z,4.90
2019-03-25T13:27:10.867Z,3.70
2019-03-25T13:29:52.067Z,4.53
2019-03-25T13:32:17.858Z,4.30
2019-03-25T13:34:50.475Z,5.63
2019-03-25T13:37:23.153Z,5.17
2019-03-25T13:39:55.761Z,5.30
2019-03-25T13:42:28.737Z,6.42
2019-03-25T13:45:01.351Z,6.85
2019-03-25T13:47:35.331Z,6.35
2019-03-25T13:50:08.797Z,5.45
2019-03-25T13:52:41.451Z,5.53
2019-03-25T13:55:14.097Z,6.35
2019-03-25T13:57:47.031Z,9.20
2019-03-25T14:00:36.781Z,10.63
2019-03-25T14:03:09.629Z,9.25
2019-03-25T14:05:42.248Z,6.70
2019-03-25T14:08:15.091Z,6.15
2019-03-25T14:10:47.691Z,5.85
2019-03-25T14:13:20.455Z,7.30
2019-03-25T14:15:53.034Z,7.53
2019-03-25T14:18:26.015Z,6.55
2019-03-25T14:20:58.584Z,6.73
2019-03-25T14:23:31.704Z,6.17
2019-03-25T14:26:04.280Z,7.60
2019-03-25T14:28:37.169Z,6.73
2019-03-25T14:31:09.724Z,6.17
2019-03-25T14:33:42.502Z,6.43
2019-03-25T14:36:15.187Z,5.93
2019-03-25T14:38:47.873Z,6.40
2019-03-25T14:41:20.474Z,6.90
2019-03-25T14:43:53.157Z,6.70
2019-03-25T14:46:25.812Z,7.23
2019-03-25T14:48:58.493Z,7.77
2019-03-25T14:51:31.114Z,7.47
2019-03-25T14:54:03.723Z,8.93
2019-03-25T14:56:36.323Z,7.50
2019-03-25T14:59:09.418Z,7.13
2019-03-25T15:01:42.066Z,8.33
2019-03-25T15:04:14.725Z,7.57
2019-03-25T15:06:47.397Z,7.60
2019-03-25T15:09:23.331Z,6.93
2019-03-25T15:11:56.070Z,7.63
2019-03-25T15:14:28.992Z,6.23
2019-03-25T15:17:01.686Z,7.33
2019-03-25T15:19:34.821Z,7.27
2019-03-25T15:22:07.415Z,7.70
2019-03-25T15:24:40.319Z,6.63
2019-03-25T15:27:12.947Z,6.20
2019-03-25T15:29:45.799Z,7.30
2019-03-25T15:32:18.764Z,7.03
2019-03-25T15:34:51.769Z,6.13
2019-03-25T15:37:24.420Z,6.00
2019-03-25T15:39:57.346Z,6.37
2019-03-25T15:42:30.064Z,6.10
2019-03-25T15:45:02.924Z,6.10
2019-03-25T15:47:35.795Z,5.73
2019-03-25T15:50:12.144Z,5.50
2019-03-25T15:52:44.788Z,4.60
2019-03-25T15:55:17.910Z,6.03
2019-03-25T15:57:50.637Z,6.17
2019-03-25T16:00:24.317Z,6.17
2019-03-25T16:02:58.125Z,6.13
2019-03-25T16:05:30.752Z,5.60
2019-03-25T16:08:03.383Z,6.40
2019-03-25T16:10:36.116Z,6.10
2019-03-25T16:13:08.710Z,5.50
2019-03-25T16:15:44.501Z,5.60
2019-03-25T16:18:41.421Z,6.43
2019-03-25T16:21:14.412Z,5.70
2019-03-25T16:23:47.006Z,6.30
2019-03-25T16:26:19.981Z,5.07
2019-03-25T16:28:52.679Z,5.67
2019-03-25T16:31:25.585Z,5.70
2019-03-25T16:33:58.245Z,5.87
2019-03-25T16:36:31.112Z,6.83
2019-03-25T16:39:04.344Z,8.70
2019-03-25T16:41:39.174Z,8.10
2019-03-25T16:44:11.779Z,8.57
2019-03-25T16:46:44.597Z,8.00
2019-03-25T16:49:17.218Z,8.50
2019-03-25T16:51:50.097Z,7.50
2019-03-25T16:54:22.670Z,9.27
2019-03-25T16:56:55.744Z,11.50
2019-03-25T16:59:28.320Z,15.27
2019-03-25T17:02:01.736Z,14.80
2019-03-25T17:04:34.317Z,13.77
2019-03-25T17:07:07.012Z,29.50
2019-03-25T17:09:39.687Z,18.67
2019-03-25T17:12:12.642Z,16.50
2019-03-25T17:14:45.311Z,14.87
2019-03-25T17:17:18.815Z,13.80
2019-03-25T17:19:51.414Z,12.30
2019-03-25T17:22:54.574Z,15.97
2019-03-25T17:25:27.615Z,13.13
2019-03-25T17:28:00.725Z,13.10
2019-03-25T17:30:33.695Z,13.57
2019-03-25T17:33:07.134Z,12.43
2019-03-25T17:35:39.798Z,14.90
2019-03-25T17:38:12.494Z,14.20
2019-03-25T17:40:45.179Z,18.97
2019-03-25T17:43:17.954Z,15.17
2019-03-25T17:45:50.592Z,15.40
2019-03-25T17:48:23.658Z,19.60
2019-03-25T17:50:56.271Z,57.30
2019-03-25T17:53:28.970Z,36.83
2019-03-25T17:56:01.566Z,16.10
2019-03-25T17:58:34.470Z,14.87
2019-03-25T18:01:35.375Z,15.83
2019-03-25T18:04:08.208Z,14.73
2019-03-25T18:06:41.147Z,13.93
2019-03-25T18:09:13.887Z,14.57
2019-03-25T18:11:47.424Z,14.83
2019-03-25T18:14:20.209Z,15.73
2019-03-25T18:16:52.912Z,13.63
2019-03-25T18:19:25.827Z,13.30
2019-03-25T18:21:58.536Z,11.70
2019-03-25T18:24:31.587Z,10.20
2019-03-25T18:27:04.296Z,9.90
2019-03-25T18:29:37.046Z,10.53
2019-03-25T18:32:09.826Z,8.70
2019-03-25T18:34:42.776Z,9.13
2019-03-25T18:37:15.549Z,9.93
2019-03-25T18:39:48.328Z,9.47
2019-03-25T18:42:20.947Z,10.00
2019-03-25T18:44:53.864Z,10.60
2019-03-25T18:47:26.506Z,9.30
2019-03-25T18:49:59.431Z,12.43
2019-03-25T18:52:32.056Z,11.10
2019-03-25T18:55:04.819Z,11.83
2019-03-25T18:57:37.816Z,12.00
2019-03-25T19:00:12.822Z,13.77
2019-03-25T19:02:45.470Z,15.50
2019-03-25T19:05:18.873Z,15.73
2019-03-25T19:07:51.721Z,19.13
2019-03-25T19:10:30.273Z,17.63
2019-03-25T19:13:03.151Z,19.20
2019-03-25T19:15:36.062Z,18.37
2019-03-25T19:18:08.657Z,18.97
2019-03-25T19:20:42.108Z,19.33
2019-03-25T19:23:14.812Z,17.77
2019-03-25T19:25:47.806Z,20.67
2019-03-25T19:28:20.443Z,20.13
2019-03-25T19:30:53.162Z,22.27
2019-03-25T19:33:25.886Z,19.67
2019-03-25T19:35:58.945Z,17.57
2019-03-25T19:38:31.750Z,14.30
2019-03-25T19:41:04.538Z,18.13
2019-03-25T19:43:37.145Z,15.80
2019-03-25T19:46:10.022Z,20.67
2019-03-25T19:48:42.715Z,19.67
2019-03-25T19:51:15.459Z,19.10
2019-03-25T19:53:48.276Z,18.23
2019-03-25T19:56:21.103Z,17.17
2019-03-25T19:58:53.920Z,20.67
2019-03-25T20:01:26.906Z,17.97
2019-03-25T20:03:59.637Z,16.83
2019-03-25T20:06:32.344Z,14.50
2019-03-25T20:09:07.057Z,14.60
2019-03-25T20:11:39.918Z,14.77
2019-03-25T20:14:12.702Z,14.70
2019-03-25T20:16:45.526Z,15.60
2019-03-25T20:19:18.192Z,15.17
2019-03-25T20:21:51.001Z,17.17
2019-03-25T20:24:23.666Z,14.57
2019-03-25T20:26:56.720Z,14.73
2019-03-25T20:29:29.463Z,13.37
2019-03-25T20:32:02.638Z,13.67
2019-03-25T20:34:37.708Z,15.07
2019-03-25T20:37:10.275Z,12.80
2019-03-25T20:39:43.234Z,13.70
2019-03-25T20:42:16.226Z,13.80
2019-03-25T20:44:48.923Z,13.17
2019-03-25T20:47:21.891Z,12.43
2019-03-25T20:49:54.593Z,11.97
2019-03-25T20:52:27.374Z,13.00
2019-03-25T20:55:00.468Z,12.63
2019-03-25T20:57:33.744Z,12.23
2019-03-25T21:00:08.503Z,13.37
2019-03-25T21:02:45.406Z,12.87
2019-03-25T21:05:17.646Z,12.57
2019-03-25T21:07:51.809Z,12.60
2019-03-25T21:10:24.602Z,12.60
2019-03-25T21:12:57.334Z,13.60
2019-03-25T21:15:29.995Z,13.70
2019-03-25T21:18:02.831Z,14.20
2019-03-25T21:20:35.467Z,14.47
2019-03-25T21:23:08.212Z,14.87
2019-03-25T21:25:40.956Z,15.47
2019-03-25T21:28:13.916Z,18.77
2019-03-25T21:30:48.094Z,16.53
2019-03-25T21:33:22.343Z,15.17
2019-03-25T21:35:56.305Z,14.67
2019-03-25T21:38:29.003Z,14.00
2019-03-25T21:41:01.725Z,15.50
2019-03-25T21:43:34.424Z,16.30
2019-03-25T21:46:07.099Z,16.30
2019-03-25T21:48:40.139Z,16.30
2019-03-25T21:51:12.848Z,18.17
2019-03-25T21:53:45.995Z,16.33
2019-03-25T21:56:18.807Z,19.27
2019-03-25T21:58:51.635Z,17.77
2019-03-25T22:01:24.389Z,15.77
2019-03-25T22:03:57.156Z,16.93
2019-03-25T22:06:29.838Z,17.27
2019-03-25T22:09:02.968Z,14.73
2019-03-25T22:11:35.647Z,16.93
2019-03-25T22:14:08.570Z,15.40
2019-03-25T22:16:41.286Z,13.57
2019-03-25T22:19:14.260Z,16.57
2019-03-25T22:21:46.883Z,16.33
2019-03-25T22:24:20.211Z,16.93
2019-03-25T22:26:52.863Z,18.97
2019-03-25T22:29:25.776Z,17.70
2019-03-25T22:31:58.487Z,17.90
2019-03-25T22:34:31.355Z,17.37
2019-03-25T22:37:03.943Z,18.97
2019-03-25T22:39:37.318Z,19.20
2019-03-25T22:42:09.903Z,19.27
2019-03-25T22:44:42.778Z,19.30
2019-03-25T22:47:15.402Z,18.80
2019-03-25T22:49:48.112Z,18.87
2019-03-25T22:52:20.799Z,18.70
2019-03-25T22:54:53.939Z,17.83
2019-03-25T22:57:26.533Z,18.67
2019-03-25T22:59:59.394Z,17.87
2019-03-25T23:02:31.959Z,18.40
2019-03-25T23:05:04.952Z,18.90
2019-03-25T23:07:37.542Z,18.80
2019-03-25T23:10:10.826Z,19.17
2019-03-25T23:12:43.461Z,17.87
2019-03-25T23:15:16.280Z,17.50
2019-03-25T23:17:48.866Z,17.63
2019-03-25T23:20:21.743Z,18.90
2019-03-25T23:22:54.332Z,18.10
2019-03-25T23:25:27.532Z,17.13
2019-03-25T23:28:00.104Z,17.93
2019-03-25T23:30:32.825Z,16.00
2019-03-25T23:33:06.510Z,17.67
2019-03-25T23:35:39.373Z,16.27
2019-03-25T23:38:12.051Z,16.90
2019-03-25T23:40:45.244Z,17.03
2019-03-25T23:43:17.821Z,15.60
2019-03-25T23:45:50.506Z,15.93
2019-03-25T23:48:23.149Z,16.47
2019-03-25T23:50:56.062Z,17.83
2019-03-25T23:53:28.694Z,16.70
2019-03-25T23:56:01.935Z,17.27
2019-03-25T23:58:34.513Z,17.20
